Time;durP1;ratioP1;P1;durP2;ratioP2;P2;SDS_P1;SDS_P2;PMS_P1;PMS_P2;Temp;Humidity;BMP_temperature;BMP_pressure;BME280_temperature;BME280_humidity;BME280_pressure;Samples;Min_cycle;Max_cycle;Signal;HPM_P1;HPM_P2
2022/05/03 00:00:10;;;;;;;5.40;3.78;;;14.40;93.70;;;;;;4150897;28;20061;-62
2022/05/03 00:02:26;;;;;;;5.85;4.13;;;14.40;93.90;;;;;;4155942;28;20119;-61
2022/05/03 00:04:34;;;;;;;6.10;4.47;;;14.40;93.50;;;;;;4150515;28;20056;-61
2022/05/03 00:06:46;;;;;;;6.28;4.40;;;14.40;94.10;;;;;;4155251;28;20053;-60
2022/05/03 00:09:04;;;;;;;9.60;5.05;;;14.40;93.80;;;;;;4151524;28;20535;-60
2022/05/03 00:11:16;;;;;;;6.60;3.78;;;14.40;93.90;;;;;;4150877;28;20110;-61
2022/05/03 00:13:20;;;;;;;6.38;4.95;;;14.30;93.90;;;;;;4150659;28;20049;-59
2022/05/03 00:15:22;;;;;;;5.63;4.47;;;14.40;93.70;;;;;;4156967;28;20113;-61
2022/05/03 00:17:25;;;;;;;10.05;4.38;;;14.30;93.60;;;;;;4150853;28;20041;-61
2022/05/03 00:19:27;;;;;;;5.82;4.82;;;14.30;93.50;;;;;;4148733;28;20117;-61
2022/05/03 00:21:28;;;;;;;5.45;4.45;;;14.30;93.40;;;;;;4151426;28;20061;-62
2022/05/03 00:23:29;;;;;;;6.65;4.47;;;14.20;93.30;;;;;;4150027;28;20187;-60
2022/05/03 00:25:30;;;;;;;5.28;4.47;;;14.20;93.70;;;;;;4154541;28;20085;-59
2022/05/03 00:27:31;;;;;;;9.05;4.35;;;14.20;94.10;;;;;;4157587;28;20038;-60
2022/05/03 00:29:33;;;;;;;7.82;4.82;;;14.20;93.90;;;;;;4152095;28;20448;-62
2022/05/03 00:31:33;;;;;;;7.18;4.38;;;14.20;93.40;;;;;;4153542;28;20042;-60
2022/05/03 00:33:34;;;;;;;6.10;4.90;;;14.10;94.30;;;;;;4157281;28;20036;-60
2022/05/03 00:35:35;;;;;;;7.10;4.50;;;14.10;93.80;;;;;;4159525;28;20068;-60
2022/05/03 00:37:36;;;;;;;7.35;4.75;;;14.10;93.70;;;;;;4156093;28;20041;-61
2022/05/03 00:39:37;;;;;;;7.10;4.38;;;14.10;94.00;;;;;;4155809;28;20108;-60
2022/05/03 00:42:03;;;;;;;6.13;4.25;;;14.00;93.70;;;;;;4153935;28;20527;-60
2022/05/03 00:46:55;;;;;;;7.50;4.55;;;14.00;94.10;;;;;;4150872;28;20061;-60
2022/05/03 00:49:06;;;;;;;5.25;4.18;;;13.90;94.00;;;;;;4154047;28;20057;-61
2022/05/03 00:51:06;;;;;;;7.25;4.80;;;13.90;94.90;;;;;;4154997;28;20034;-61
2022/05/03 00:53:19;;;;;;;5.25;4.00;;;13.80;94.90;;;;;;4150747;28;20069;-60
2022/05/03 00:55:53;;;;;;;5.40;4.13;;;13.80;94.60;;;;;;4154484;28;20073;-61
2022/05/03 00:58:14;;;;;;;6.00;4.07;;;13.80;94.20;;;;;;4155355;28;20045;-60
2022/05/03 01:00:15;;;;;;;4.93;4.05;;;13.80;94.20;;;;;;4150853;28;20080;-62
2022/05/03 01:02:26;;;;;;;6.70;4.10;;;13.80;94.00;;;;;;4152153;28;20492;-61
2022/05/03 01:04:56;;;;;;;6.45;4.82;;;13.70;94.10;;;;;;4158107;28;20369;-60
2022/05/03 01:07:19;;;;;;;6.72;4.38;;;13.70;93.90;;;;;;4148461;28;20061;-60
2022/05/03 01:09:44;;;;;;;6.35;4.32;;;13.70;93.90;;;;;;4150310;28;20057;-60
2022/05/03 01:12:15;;;;;;;7.05;4.60;;;13.60;94.00;;;;;;4142629;28;20128;-61
2022/05/03 01:14:48;;;;;;;6.68;4.05;;;13.60;94.40;;;;;;4150669;28;20045;-62
2022/05/03 01:16:59;;;;;;;8.02;4.75;;;13.60;95.10;;;;;;4152762;28;20044;-60
2022/05/03 01:19:27;;;;;;;6.85;4.20;;;13.50;95.40;;;;;;4148214;28;20042;-60
2022/05/03 01:21:48;;;;;;;6.57;4.90;;;13.50;95.00;;;;;;4153677;28;20120;-63
2022/05/03 01:23:55;;;;;;;6.93;5.00;;;13.50;95.20;;;;;;4150939;28;20046;-61
2022/05/03 01:26:24;;;;;;;7.93;4.70;;;13.40;95.40;;;;;;4149746;28;20120;-60
2022/05/03 01:28:33;;;;;;;6.22;4.22;;;13.40;95.10;;;;;;4150653;28;20117;-61
2022/05/03 01:30:36;;;;;;;7.03;4.70;;;13.40;94.90;;;;;;4150075;28;20121;-58
2022/05/03 01:32:41;;;;;;;;;;;13.40;95.30;;;;;;4156848;28;20049;-60
2022/05/03 01:34:46;;;;;;;9.38;4.28;;;13.30;95.70;;;;;;4156204;28;19909;-59
2022/05/03 01:37:28;;;;;;;8.40;4.43;;;13.30;95.80;;;;;;4150544;28;20042;-62
2022/05/03 01:40:01;;;;;;;7.07;5.00;;;13.30;95.60;;;;;;4147636;28;20416;-61
2022/05/03 01:42:09;;;;;;;5.95;4.13;;;13.30;95.20;;;;;;4149882;28;20033;-62
2022/05/03 01:44:32;;;;;;;6.47;4.72;;;13.20;95.50;;;;;;4159056;28;20359;-61
2022/05/03 01:46:37;;;;;;;8.27;4.88;;;13.20;95.50;;;;;;4153597;28;20061;-61
2022/05/03 01:51:38;;;;;;;6.70;4.50;;;13.10;95.20;;;;;;4151870;28;20169;-60
2022/05/03 01:53:51;;;;;;;7.25;4.55;;;13.10;95.10;;;;;;4151782;28;20038;-60
2022/05/03 01:56:24;;;;;;;7.57;4.25;;;13.10;94.80;;;;;;4151069;28;20088;-60
2022/05/03 01:58:42;;;;;;;5.93;4.40;;;13.00;94.90;;;;;;4157784;28;20037;-60
2022/05/03 02:00:53;;;;;;;9.50;4.60;;;13.00;94.60;;;;;;4156442;28;20036;-61
2022/05/03 02:03:02;;;;;;;6.68;4.05;;;13.00;95.10;;;;;;4157867;28;20110;-60
2022/05/03 02:05:06;;;;;;;6.40;4.43;;;13.00;95.30;;;;;;4158618;28;20041;-62
2022/05/03 02:07:26;;;;;;;6.43;4.53;;;12.90;94.60;;;;;;4156582;28;20025;-61
2022/05/03 02:09:59;;;;;;;8.27;4.88;;;12.90;95.30;;;;;;4157502;28;20083;-60
2022/05/03 02:12:07;;;;;;;7.82;4.50;;;12.90;95.70;;;;;;4154486;28;20503;-62
2022/05/03 02:16:45;;;;;;;7.18;4.47;;;12.90;95.10;;;;;;4155163;28;20033;-60
2022/05/03 02:18:59;;;;;;;5.22;4.20;;;12.80;95.10;;;;;;4151751;28;20068;-58
2022/05/03 02:21:09;;;;;;;5.70;4.30;;;12.80;95.00;;;;;;4158318;28;20482;-60
2022/05/03 02:23:13;;;;;;;6.18;4.20;;;12.80;94.70;;;;;;4157776;28;20400;-61
2022/05/03 02:25:26;;;;;;;5.13;4.30;;;12.80;94.70;;;;;;4152062;28;20444;-60
2022/05/03 02:27:31;;;;;;;5.55;4.15;;;12.80;95.50;;;;;;4154176;28;20049;-60
2022/05/03 02:29:56;;;;;;;6.82;4.18;;;12.70;94.90;;;;;;4149761;28;20045;-60
2022/05/03 02:32:08;;;;;;;5.25;3.88;;;12.70;95.30;;;;;;4154099;28;20034;-60
2022/05/03 02:34:30;;;;;;;6.80;4.53;;;12.70;95.20;;;;;;4150484;28;20041;-60
2022/05/03 02:36:35;;;;;;;10.43;4.53;;;12.60;95.20;;;;;;4152964;28;20087;-61
2022/05/03 02:38:54;;;;;;;4.97;3.85;;;12.60;95.30;;;;;;4156756;28;20095;-60
2022/05/03 02:40:57;;;;;;;6.18;4.35;;;12.60;95.40;;;;;;4156945;28;20034;-60
2022/05/03 02:42:58;;;;;;;5.72;4.32;;;12.50;96.10;;;;;;4156953;28;20049;-61
2022/05/03 02:45:01;;;;;;;6.65;4.45;;;12.50;95.80;;;;;;4155923;28;20038;-61
2022/05/03 02:47:24;;;;;;;8.90;4.60;;;12.40;96.70;;;;;;4157527;28;20124;-60
2022/05/03 02:49:37;;;;;;;6.55;4.32;;;12.40;97.00;;;;;;4155977;28;20050;-60
2022/05/03 02:51:52;;;;;;;6.72;4.55;;;12.30;96.80;;;;;;4155643;28;20030;-61
2022/05/03 02:53:59;;;;;;;5.28;4.05;;;12.30;96.90;;;;;;4154487;28;20076;-60
2022/05/03 02:56:24;;;;;;;6.13;4.18;;;12.20;96.50;;;;;;4156232;28;20029;-62
2022/05/03 02:58:36;;;;;;;7.18;4.63;;;12.20;96.30;;;;;;4158100;28;20236;-60
2022/05/03 03:03:47;;;;;;;7.07;4.72;;;12.20;97.10;;;;;;4156781;28;20061;-62
2022/05/03 03:05:58;;;;;;;6.10;3.88;;;12.20;97.30;;;;;;4154606;28;21152;-61
2022/05/03 03:08:03;;;;;;;6.60;3.78;;;12.10;97.00;;;;;;4155256;28;20048;-62
2022/05/03 03:10:05;;;;;;;5.45;4.38;;;12.10;97.10;;;;;;4149446;28;20056;-62
2022/05/03 03:12:16;;;;;;;5.85;3.97;;;12.00;97.10;;;;;;4152878;28;20034;-59
2022/05/03 03:14:32;;;;;;;6.40;4.43;;;11.90;97.90;;;;;;4154517;28;20037;-62
2022/05/03 03:16:39;;;;;;;7.70;5.10;;;11.90;97.60;;;;;;4157020;28;20041;-60
2022/05/03 03:18:42;;;;;;;5.40;4.07;;;11.90;97.70;;;;;;4155256;28;20040;-60
2022/05/03 03:20:54;;;;;;;4.72;3.70;;;11.80;97.50;;;;;;4154202;28;20045;-63
2022/05/03 03:22:55;;;;;;;6.00;4.05;;;11.80;97.90;;;;;;4153665;28;20041;-61
2022/05/03 03:24:57;;;;;;;7.93;4.25;;;11.80;97.70;;;;;;4152919;28;20033;-61
2022/05/03 03:27:03;;;;;;;10.15;4.03;;;11.80;97.60;;;;;;4154382;28;20034;-61
2022/05/03 03:29:05;;;;;;;9.68;4.22;;;11.80;97.80;;;;;;4154847;28;20042;-60
2022/05/03 03:31:08;;;;;;;6.80;4.20;;;11.70;98.20;;;;;;4154425;28;20073;-60
2022/05/03 03:33:10;;;;;;;4.72;3.70;;;11.70;97.90;;;;;;4155461;28;20751;-59
2022/05/03 03:35:14;;;;;;;4.47;3.45;;;11.70;97.60;;;;;;4157292;28;20042;-62
2022/05/03 03:37:16;;;;;;;4.32;3.47;;;11.70;97.30;;;;;;4157722;28;20041;-61
2022/05/03 03:39:16;;;;;;;4.35;3.20;;;11.70;97.50;;;;;;4153242;28;20393;-61
2022/05/03 03:41:17;;;;;;;5.18;3.53;;;11.70;97.30;;;;;;4156857;28;20029;-61
2022/05/03 03:43:17;;;;;;;5.13;3.88;;;11.60;97.20;;;;;;4155270;28;20057;-63
2022/05/03 03:45:18;;;;;;;5.20;3.28;;;11.70;96.80;;;;;;4159977;28;20042;-62
2022/05/03 03:47:19;;;;;;;4.68;3.63;;;11.60;97.00;;;;;;4161277;28;20460;-59
2022/05/03 03:49:19;;;;;;;5.65;3.53;;;11.60;97.00;;;;;;4157874;28;20042;-64
2022/05/03 03:51:21;;;;;;;4.43;3.40;;;11.60;97.10;;;;;;4158011;28;20041;-60
2022/05/03 03:53:22;;;;;;;5.65;4.30;;;11.60;97.50;;;;;;4159335;28;20133;-62
2022/05/03 03:55:24;;;;;;;8.60;3.50;;;11.60;97.30;;;;;;4158867;28;20037;-62
2022/05/03 03:57:25;;;;;;;5.80;3.55;;;11.60;97.10;;;;;;4157774;28;20042;-61
2022/05/03 03:59:30;;;;;;;6.10;4.20;;;11.50;97.00;;;;;;4154998;28;20103;-61
2022/05/03 04:01:31;;;;;;;7.47;3.80;;;11.50;97.10;;;;;;4156618;28;20530;-60
2022/05/03 04:03:34;;;;;;;5.07;3.72;;;11.50;97.70;;;;;;4156096;28;20041;-61
2022/05/03 04:05:35;;;;;;;7.90;4.03;;;11.50;97.70;;;;;;4157102;28;20060;-61
2022/05/03 04:07:36;;;;;;;4.95;3.72;;;11.50;98.00;;;;;;4155462;28;20088;-60
2022/05/03 04:09:37;;;;;;;6.05;4.03;;;11.50;97.90;;;;;;4157516;28;20121;-59
2022/05/03 04:11:45;;;;;;;6.28;4.00;;;11.40;98.20;;;;;;4153500;28;20053;-61
2022/05/03 04:13:46;;;;;;;4.95;3.72;;;11.40;98.40;;;;;;4153914;28;20358;-59
2022/05/03 04:15:47;;;;;;;5.70;3.90;;;11.40;98.10;;;;;;4152913;28;20040;-61
2022/05/03 04:17:48;;;;;;;5.78;3.83;;;11.40;98.30;;;;;;4151786;28;20036;-63
2022/05/03 04:19:49;;;;;;;6.13;4.13;;;11.40;98.30;;;;;;4154677;28;20129;-62
2022/05/03 04:21:50;;;;;;;5.82;3.50;;;11.40;98.40;;;;;;4157716;28;20044;-63
2022/05/03 04:23:51;;;;;;;5.32;3.90;;;11.40;98.20;;;;;;4157530;28;20029;-61
2022/05/03 04:25:52;;;;;;;5.70;4.18;;;11.30;98.10;;;;;;4155888;28;20547;-60
2022/05/03 04:27:52;;;;;;;9.55;4.50;;;11.30;98.30;;;;;;4152738;28;20034;-61
2022/05/03 04:29:53;;;;;;;5.32;4.03;;;11.30;98.80;;;;;;4154707;28;20543;-61
2022/05/03 04:31:54;;;;;;;4.90;3.78;;;11.30;99.00;;;;;;4159372;28;20053;-59
2022/05/03 04:33:55;;;;;;;7.25;4.55;;;11.30;99.50;;;;;;4158627;28;20044;-61
2022/05/03 04:35:56;;;;;;;7.63;4.18;;;11.30;99.40;;;;;;4157378;28;20040;-61
2022/05/03 04:37:57;;;;;;;5.47;3.92;;;11.20;99.70;;;;;;4154806;28;20046;-61
2022/05/03 04:39:58;;;;;;;5.47;4.15;;;11.20;99.80;;;;;;4158454;28;20522;-60
2022/05/03 04:41:58;;;;;;;6.32;3.95;;;11.20;99.60;;;;;;4151597;28;20038;-61
2022/05/03 04:43:59;;;;;;;5.97;4.13;;;11.20;99.90;;;;;;4156231;28;20119;-60
2022/05/03 04:46:00;;;;;;;6.45;4.25;;;11.20;99.60;;;;;;4157366;28;20095;-60
2022/05/03 04:48:00;;;;;;;7.75;3.75;;;11.20;99.40;;;;;;4157223;28;20045;-60
2022/05/03 04:50:01;;;;;;;5.60;3.92;;;11.20;99.60;;;;;;4153883;28;20053;-59
2022/05/03 04:52:02;;;;;;;5.60;3.97;;;11.20;99.40;;;;;;4153119;28;20046;-60
2022/05/03 04:54:03;;;;;;;5.00;3.95;;;11.20;99.50;;;;;;4155191;28;20046;-61
2022/05/03 04:56:03;;;;;;;7.00;3.80;;;11.20;99.60;;;;;;4155253;28;20790;-61
2022/05/03 04:58:04;;;;;;;5.55;4.28;;;11.20;99.50;;;;;;4156991;28;20034;-61
2022/05/03 05:00:05;;;;;;;5.68;4.32;;;11.20;99.10;;;;;;4152725;28;20068;-62
2022/05/03 05:02:06;;;;;;;5.63;4.07;;;11.30;99.20;;;;;;4156721;28;20048;-61
2022/05/03 05:04:07;;;;;;;6.60;4.20;;;11.30;99.50;;;;;;4159323;28;20029;-61
2022/05/03 05:06:09;;;;;;;6.18;3.97;;;11.30;99.90;;;;;;4157516;28;20053;-61
2022/05/03 05:08:09;;;;;;;6.00;3.95;;;11.30;99.90;;;;;;4157086;28;20120;-61
2022/05/03 05:10:27;;;;;;;8.50;4.85;;;11.30;99.90;;;;;;4155441;28;20736;-64
2022/05/03 05:12:30;;;;;;;5.40;4.18;;;11.30;99.90;;;;;;4155066;28;20437;-59
2022/05/03 05:14:30;;;;;;;7.18;3.83;;;11.40;99.90;;;;;;4158570;28;20041;-60
2022/05/03 05:16:31;;;;;;;5.80;4.35;;;11.40;99.90;;;;;;4155098;28;20053;-61
2022/05/03 05:18:32;;;;;;;5.43;4.18;;;11.40;99.90;;;;;;4158059;28;20037;-61
2022/05/03 05:20:34;;;;;;;7.47;4.55;;;11.50;99.90;;;;;;4154700;28;20045;-61
2022/05/03 05:22:34;;;;;;;6.72;4.85;;;11.50;99.90;;;;;;4154509;28;20030;-61
2022/05/03 05:24:35;;;;;;;5.45;4.68;;;11.50;99.90;;;;;;4172668;28;20112;-61
2022/05/03 05:26:36;;;;;;;8.77;4.80;;;11.60;99.90;;;;;;4158940;28;20033;-61
2022/05/03 05:28:36;;;;;;;6.13;4.53;;;11.60;99.90;;;;;;4157451;28;20495;-63
2022/05/03 05:30:37;;;;;;;5.70;4.22;;;11.60;99.90;;;;;;4153604;28;20048;-61
2022/05/03 05:32:38;;;;;;;6.50;4.75;;;11.60;99.90;;;;;;4159529;28;20120;-60
2022/05/03 05:34:38;;;;;;;6.75;4.88;;;11.60;99.90;;;;;;4158074;28;20041;-61
2022/05/03 05:36:39;;;;;;;9.02;5.13;;;11.70;99.90;;;;;;4155817;28;20136;-61
2022/05/03 05:38:40;;;;;;;7.80;5.32;;;11.70;99.90;;;;;;4156557;28;20528;-61
2022/05/03 05:40:41;;;;;;;7.47;4.90;;;11.70;99.90;;;;;;4156790;28;20080;-61
2022/05/03 05:42:42;;;;;;;6.97;4.90;;;11.70;99.90;;;;;;4158334;28;20038;-61
2022/05/03 05:44:42;;;;;;;7.88;5.00;;;11.70;99.90;;;;;;4153615;28;20039;-61
2022/05/03 05:46:43;;;;;;;7.85;5.35;;;11.80;99.90;;;;;;4157398;28;20048;-65
2022/05/03 05:48:45;;;;;;;6.32;4.65;;;11.80;99.90;;;;;;4156075;28;20048;-61
2022/05/03 05:50:46;;;;;;;8.50;5.03;;;11.90;99.90;;;;;;4154527;28;20169;-61
2022/05/03 05:55:06;;;;;;;8.05;5.10;;;11.90;99.90;;;;;;4157874;28;20050;-63
2022/05/03 05:57:07;;;;;;;9.77;4.97;;;12.00;99.90;;;;;;4157813;28;20053;-61
2022/05/03 05:59:08;;;;;;;6.10;4.70;;;12.00;99.90;;;;;;4154969;28;20037;-60
2022/05/03 06:01:09;;;;;;;7.68;4.45;;;12.10;99.90;;;;;;4154282;28;20049;-60
2022/05/03 06:03:09;;;;;;;11.10;5.10;;;12.10;99.90;;;;;;4155620;28;20037;-61
2022/05/03 06:05:10;;;;;;;8.65;4.95;;;12.20;99.90;;;;;;4154621;28;20037;-63
2022/05/03 06:07:11;;;;;;;8.65;5.07;;;12.20;99.90;;;;;;4155119;28;20068;-61
2022/05/03 06:09:11;;;;;;;6.72;4.75;;;12.30;99.90;;;;;;4155404;28;20103;-61
2022/05/03 06:11:12;;;;;;;6.90;4.82;;;12.30;99.90;;;;;;4153914;28;20036;-61
2022/05/03 06:13:13;;;;;;;6.43;4.65;;;12.40;99.90;;;;;;4156694;28;20041;-61
2022/05/03 06:15:14;;;;;;;8.95;4.82;;;12.40;99.90;;;;;;4153910;28;20037;-61
2022/05/03 06:17:15;;;;;;;7.97;4.45;;;12.40;99.90;;;;;;4156408;28;20046;-61
2022/05/03 06:19:15;;;;;;;10.57;5.60;;;12.50;99.90;;;;;;4155903;28;20037;-61
2022/05/03 06:21:16;;;;;;;7.45;4.90;;;12.60;99.90;;;;;;4155269;28;20125;-61
2022/05/03 06:23:17;;;;;;;10.88;5.45;;;12.60;99.90;;;;;;4156406;28;20033;-61
2022/05/03 06:25:18;;;;;;;8.52;5.03;;;12.80;99.90;;;;;;4155914;28;20045;-61
2022/05/03 06:27:18;;;;;;;7.05;4.75;;;13.00;99.90;;;;;;4157224;28;20087;-61
2022/05/03 06:29:19;;;;;;;8.23;4.82;;;13.40;98.70;;;;;;4155980;28;20053;-60
2022/05/03 06:31:21;;;;;;;7.68;4.50;;;13.70;99.90;;;;;;4153422;28;20100;-62
2022/05/03 06:33:21;;;;;;;6.97;4.00;;;13.90;94.90;;;;;;4155920;28;20061;-63
2022/05/03 06:35:22;;;;;;;5.20;3.80;;;14.30;98.30;;;;;;4156059;28;20049;-62
2022/05/03 06:37:23;;;;;;;5.13;4.18;;;14.70;96.80;;;;;;4155648;28;20037;-62
2022/05/03 06:39:23;;;;;;;5.90;3.67;;;15.00;96.80;;;;;;4155930;28;20053;-63
2022/05/03 06:41:24;;;;;;;5.38;3.50;;;15.40;95.90;;;;;;4148931;28;20408;-62
2022/05/03 06:43:24;;;;;;;6.78;3.42;;;15.70;94.90;;;;;;4155426;28;20041;-62
2022/05/03 06:45:25;;;;;;;4.82;3.28;;;16.10;93.60;;;;;;4151831;28;20037;-62
2022/05/03 06:47:27;;;;;;;6.00;3.35;;;16.50;93.90;;;;;;4155259;28;20060;-62
2022/05/03 06:49:27;;;;;;;3.93;2.90;;;16.80;92.40;;;;;;4144192;28;20092;-61
2022/05/03 06:51:28;;;;;;;4.35;2.92;;;17.10;92.50;;;;;;4152434;28;20063;-62
2022/05/03 06:53:28;;;;;;;4.25;2.53;;;17.40;90.80;;;;;;4153309;28;20098;-63
2022/05/03 06:55:29;;;;;;;5.43;2.40;;;17.70;90.10;;;;;;4155325;28;20602;-61
2022/05/03 06:57:30;;;;;;;3.13;2.00;;;17.90;89.20;;;;;;4155683;28;20037;-61
2022/05/03 06:59:30;;;;;;;4.70;2.03;;;18.10;87.20;;;;;;4154944;28;20187;-62
2022/05/03 07:01:31;;;;;;;2.20;1.92;;;18.30;85.90;;;;;;4150775;28;20041;-63
2022/05/03 07:03:31;;;;;;;2.72;2.10;;;18.50;83.30;;;;;;4153920;28;20049;-62
2022/05/03 07:05:32;;;;;;;2.60;2.05;;;18.30;74.30;;;;;;4153931;28;20041;-62
2022/05/03 07:07:33;;;;;;;2.35;1.83;;;18.30;69.30;;;;;;4154911;28;20460;-63
2022/05/03 07:09:34;;;;;;;3.63;1.58;;;18.20;69.20;;;;;;4153296;28;20064;-62
2022/05/03 07:11:34;;;;;;;2.63;1.80;;;18.30;72.70;;;;;;4159108;28;20070;-62
2022/05/03 07:13:35;;;;;;;2.35;1.52;;;18.40;78.40;;;;;;4155899;28;20042;-62
2022/05/03 07:15:35;;;;;;;3.13;1.63;;;18.60;81.40;;;;;;4154237;28;20041;-62
2022/05/03 07:24:35;;;;;;;1.48;1.30;;;18.80;78.60;;;;;;4157172;28;20396;-62
2022/05/03 07:26:37;;;;;;;1.50;1.40;;;19.00;77.20;;;;;;4159384;28;20439;-62
2022/05/03 07:28:38;;;;;;;2.38;1.50;;;19.10;74.20;;;;;;4157172;28;20149;-62
2022/05/03 07:30:38;;;;;;;2.95;1.60;;;18.90;72.40;;;;;;4156896;28;20038;-61
2022/05/03 07:32:39;;;;;;;3.10;1.40;;;19.00;76.40;;;;;;4158187;28;20052;-63
2022/05/03 07:34:40;;;;;;;1.83;1.25;;;19.10;75.20;;;;;;4158618;28;22985;-61
2022/05/03 07:36:42;;;;;;;2.95;1.80;;;19.10;74.70;;;;;;4157371;28;20042;-62
2022/05/03 07:38:42;;;;;;;3.10;1.30;;;19.20;75.40;;;;;;4153331;28;20107;-62
2022/05/03 07:40:43;;;;;;;2.65;1.60;;;19.20;77.50;;;;;;4157579;28;20276;-62
2022/05/03 07:42:43;;;;;;;1.20;1.05;;;19.30;76.80;;;;;;4160142;28;20033;-63
2022/05/03 07:44:44;;;;;;;1.30;1.20;;;19.40;74.30;;;;;;4157247;28;20044;-62
2022/05/03 07:46:45;;;;;;;2.90;1.50;;;19.50;72.30;;;;;;4157919;28;20034;-62
2022/05/03 07:48:45;;;;;;;2.42;1.20;;;19.50;71.90;;;;;;4160236;28;20469;-62
2022/05/03 07:50:46;;;;;;;2.15;1.40;;;19.50;73.50;;;;;;4158160;28;20428;-62
2022/05/03 07:52:47;;;;;;;2.05;1.30;;;19.60;69.00;;;;;;4159130;28;20095;-62
2022/05/03 07:54:47;;;;;;;2.38;1.48;;;19.30;67.20;;;;;;4157160;28;20033;-61
2022/05/03 07:56:48;;;;;;;3.03;1.65;;;19.30;64.30;;;;;;4157329;28;20036;-62
2022/05/03 07:58:49;;;;;;;1.25;1.15;;;19.40;70.90;;;;;;4157744;28;20091;-62
2022/05/03 08:00:49;;;;;;;3.70;1.50;;;19.50;71.20;;;;;;4156001;28;20037;-62
2022/05/03 08:02:50;;;;;;;2.78;1.30;;;19.50;71.40;;;;;;4159149;28;20048;-62
2022/05/03 08:04:52;;;;;;;1.75;1.55;;;19.60;72.80;;;;;;4158297;28;20049;-63
2022/05/03 08:06:53;;;;;;;4.10;2.00;;;19.60;70.00;;;;;;4157473;28;20052;-61
2022/05/03 08:08:56;;;;;;;2.70;1.70;;;19.60;72.00;;;;;;4157187;28;20057;-60
2022/05/03 08:10:56;;;;;;;3.90;1.77;;;19.60;72.50;;;;;;4157010;28;20090;-61
2022/05/03 08:12:57;;;;;;;1.85;1.38;;;19.20;65.30;;;;;;4155125;28;20423;-62
2022/05/03 08:14:58;;;;;;;2.00;1.60;;;19.10;63.90;;;;;;4155707;28;20056;-62
2022/05/03 08:16:58;;;;;;;1.50;1.30;;;19.10;70.20;;;;;;4157701;28;20037;-62
2022/05/03 08:18:59;;;;;;;3.75;1.73;;;19.30;70.70;;;;;;4156410;28;20048;-63
2022/05/03 08:21:00;;;;;;;1.90;1.52;;;19.40;71.40;;;;;;4158930;28;20057;-62
2022/05/03 08:23:00;;;;;;;2.20;1.50;;;19.30;66.10;;;;;;4158511;28;20374;-62
2022/05/03 08:25:02;;;;;;;6.30;2.38;;;19.30;71.40;;;;;;4158905;28;20250;-62
2022/05/03 08:27:04;;;;;;;2.88;1.65;;;19.40;70.20;;;;;;4155872;28;20065;-61
2022/05/03 08:29:04;;;;;;;2.88;2.10;;;19.60;73.90;;;;;;4174255;28;20084;-62
2022/05/03 08:31:05;;;;;;;2.47;1.52;;;19.60;71.30;;;;;;4155795;28;20582;-61
2022/05/03 08:33:05;;;;;;;3.50;2.10;;;19.70;71.00;;;;;;4155027;28;20022;-62
2022/05/03 08:35:06;;;;;;;2.33;1.80;;;19.80;70.80;;;;;;4160438;28;20053;-63
2022/05/03 08:44:05;;;;;;;3.67;2.40;;;20.10;67.70;;;;;;4157137;28;20065;-61
2022/05/03 08:46:08;;;;;;;2.95;1.75;;;20.10;71.60;;;;;;4153994;28;20037;-62
2022/05/03 08:48:09;;;;;;;1.73;1.45;;;20.20;68.90;;;;;;4159273;28;20045;-61
2022/05/03 08:50:11;;;;;;;2.05;1.75;;;20.20;71.10;;;;;;4158498;28;20041;-63
2022/05/03 08:52:16;;;;;;;3.13;2.10;;;20.10;63.20;;;;;;4158376;28;20049;-62
2022/05/03 08:54:17;;;;;;;2.22;1.58;;;20.20;69.10;;;;;;4158492;28;20037;-62
2022/05/03 08:56:18;;;;;;;2.03;1.42;;;20.30;69.10;;;;;;4157237;28;20034;-61
2022/05/03 08:58:19;;;;;;;1.45;1.30;;;20.30;70.50;;;;;;4157815;28;20049;-62
2022/05/03 09:00:21;;;;;;;2.33;1.38;;;20.40;69.00;;;;;;4153598;28;20037;-62
2022/05/03 09:02:21;;;;;;;1.87;1.70;;;20.50;67.90;;;;;;4155126;28;20049;-64
2022/05/03 09:04:22;;;;;;;3.70;1.35;;;20.30;62.00;;;;;;4158097;28;20072;-63
2022/05/03 09:06:44;;;;;;;3.65;1.23;;;20.30;66.90;;;;;;4157998;28;20042;-63
2022/05/03 09:08:52;;;;;;;2.00;1.55;;;20.30;60.40;;;;;;4158057;28;20046;-61
2022/05/03 09:10:53;;;;;;;1.38;1.13;;;20.20;62.00;;;;;;4156910;28;20044;-63
2022/05/03 09:12:57;;;;;;;3.13;1.70;;;20.20;66.60;;;;;;4157378;28;20057;-62
2022/05/03 09:15:02;;;;;;;1.88;1.35;;;20.30;66.00;;;;;;4154678;28;20050;-62
2022/05/03 09:17:03;;;;;;;1.25;1.08;;;20.40;67.40;;;;;;4158069;28;21046;-62
2022/05/03 09:19:20;;;;;;;5.28;1.70;;;20.40;68.20;;;;;;4159499;28;20041;-62
2022/05/03 09:23:49;;;;;;;2.65;1.40;;;20.40;67.40;;;;;;4157809;28;20041;-62
2022/05/03 09:25:50;;;;;;;1.38;1.27;;;20.50;66.60;;;;;;4156258;28;20029;-61
2022/05/03 09:28:05;;;;;;;1.30;1.20;;;20.60;67.30;;;;;;4158600;28;20047;-62
2022/05/03 09:30:10;;;;;;;1.30;0.80;;;20.70;64.60;;;;;;4157352;28;20046;-63
2022/05/03 09:32:10;;;;;;;1.60;1.17;;;20.70;66.00;;;;;;4156176;28;20423;-62
2022/05/03 09:34:20;;;;;;;3.75;1.63;;;20.80;66.90;;;;;;4157758;28;20084;-61
2022/05/03 09:36:20;;;;;;;2.42;1.38;;;20.80;62.00;;;;;;4156991;28;20045;-60
2022/05/03 09:38:25;;;;;;;3.38;1.33;;;20.50;62.80;;;;;;4157441;28;20120;-61
2022/05/03 09:40:26;;;;;;;1.83;1.30;;;20.70;65.00;;;;;;4155934;28;20057;-59
2022/05/03 09:42:28;;;;;;;3.58;1.27;;;20.70;65.90;;;;;;4155449;28;20125;-62
2022/05/03 09:44:30;;;;;;;1.55;1.33;;;20.70;65.80;;;;;;4156448;28;20164;-62
2022/05/03 09:46:52;;;;;;;1.20;1.10;;;20.70;62.00;;;;;;4155823;28;20034;-59
2022/05/03 09:48:56;;;;;;;1.17;1.00;;;20.40;57.30;;;;;;4158435;28;20040;-61
2022/05/03 09:50:57;;;;;;;1.25;1.05;;;20.60;59.70;;;;;;4157862;28;20551;-62
2022/05/03 09:53:10;;;;;;;1.73;0.90;;;20.70;63.90;;;;;;4156242;28;20539;-62
2022/05/03 09:55:11;;;;;;;2.42;1.30;;;20.70;59.00;;;;;;4155592;28;20044;-62
2022/05/03 09:57:24;;;;;;;1.92;1.60;;;20.90;63.00;;;;;;4156422;28;20099;-61
2022/05/03 09:59:26;;;;;;;4.15;1.60;;;20.90;62.90;;;;;;4155673;28;20455;-62
2022/05/03 10:01:27;;;;;;;2.40;1.40;;;20.50;55.70;;;;;;4156233;28;20400;-62
2022/05/03 10:03:28;;;;;;;1.88;1.33;;;20.20;57.30;;;;;;4158067;28;20507;-62
2022/05/03 10:05:29;;;;;;;5.55;1.50;;;19.90;57.10;;;;;;4158576;28;20207;-62
2022/05/03 10:07:31;;;;;;;1.67;1.10;;;19.70;56.50;;;;;;4158900;28;20033;-62
2022/05/03 10:09:32;;;;;;;1.35;1.25;;;19.90;61.10;;;;;;4156671;28;20045;-62
2022/05/03 10:11:34;;;;;;;1.65;1.02;;;19.70;56.90;;;;;;4155398;28;21066;-61
2022/05/03 10:13:34;;;;;;;1.58;1.17;;;19.80;58.50;;;;;;4157044;28;20033;-62
2022/05/03 10:20:38;;;;;;;1.60;1.10;;;20.10;64.30;;;;;;4156919;28;20048;-62
2022/05/03 10:22:39;;;;;;;3.08;1.60;;;19.90;55.20;;;;;;4155092;28;20083;-62
2022/05/03 10:24:54;;;;;;;1.70;1.37;;;20.10;66.30;;;;;;4158625;28;20039;-62
2022/05/03 10:27:03;;;;;;;1.70;1.50;;;20.20;59.20;;;;;;4157229;28;20049;-62
2022/05/03 10:29:05;;;;;;;1.70;1.58;;;20.40;62.40;;;;;;4155458;28;20132;-62
2022/05/03 10:31:05;;;;;;;2.70;1.67;;;20.50;60.70;;;;;;4150432;28;21454;-62
2022/05/03 10:33:21;;;;;;;1.58;1.48;;;20.50;64.10;;;;;;4154950;28;20065;-62
2022/05/03 10:35:33;;;;;;;1.58;1.45;;;20.50;58.60;;;;;;4154538;28;20551;-60
2022/05/03 10:37:35;;;;;;;2.22;1.83;;;20.20;56.10;;;;;;4151781;28;20088;-62
2022/05/03 10:39:51;;;;;;;2.00;1.70;;;19.90;55.90;;;;;;4156072;28;20084;-62
2022/05/03 10:41:53;;;;;;;3.00;1.88;;;19.70;56.80;;;;;;4155214;28;20038;-61
2022/05/03 10:43:54;;;;;;;2.92;1.90;;;19.50;58.70;;;;;;4156055;28;20064;-63
2022/05/03 10:45:56;;;;;;;15.45;5.32;;;19.70;63.40;;;;;;4157362;28;20049;-63
2022/05/03 10:47:57;;;;;;;9.03;4.83;;;19.90;65.10;;;;;;4158252;28;20051;-61
2022/05/03 10:50:12;;;;;;;3.50;2.85;;;20.00;67.50;;;;;;4157238;28;20296;-62
2022/05/03 10:52:16;;;;;;;3.33;2.47;;;20.10;66.40;;;;;;4156526;28;20053;-61
2022/05/03 10:54:17;;;;;;;3.63;2.20;;;20.10;65.90;;;;;;4152837;28;20041;-62
2022/05/03 10:56:20;;;;;;;5.28;2.20;;;20.10;66.90;;;;;;4156184;28;20026;-62
2022/05/03 10:58:28;;;;;;;3.42;2.30;;;20.20;65.40;;;;;;4156776;28;20060;-62
2022/05/03 11:01:00;;;;;;;2.83;2.20;;;20.10;58.30;;;;;;4156759;28;20075;-62
2022/05/03 11:03:19;;;;;;;2.65;2.08;;;20.20;63.90;;;;;;4155595;28;20049;-61
2022/05/03 11:05:20;;;;;;;2.00;1.80;;;20.30;68.70;;;;;;4155643;28;20054;-61
2022/05/03 11:07:29;;;;;;;4.43;1.98;;;20.40;66.80;;;;;;4156216;28;20037;-62
2022/05/03 11:09:33;;;;;;;3.70;2.30;;;20.50;67.50;;;;;;4157492;28;20053;-62
2022/05/03 11:11:50;;;;;;;3.67;2.33;;;20.50;68.70;;;;;;4157044;28;20103;-62
2022/05/03 11:13:51;;;;;;;11.20;2.75;;;20.50;67.00;;;;;;4154887;28;20033;-62
2022/05/03 11:16:23;;;;;;;4.80;2.03;;;20.40;67.50;;;;;;4153842;28;20200;-62
2022/05/03 11:18:26;;;;;;;5.68;2.15;;;20.50;68.20;;;;;;4153628;28;20429;-63
2022/05/03 11:20:27;;;;;;;4.40;1.98;;;20.50;63.60;;;;;;4156728;28;20061;-62
2022/05/03 11:22:32;;;;;;;5.38;2.53;;;20.60;65.40;;;;;;4156983;28;20592;-62
2022/05/03 11:24:33;;;;;;;3.42;2.00;;;20.60;65.30;;;;;;4158269;28;20122;-61
2022/05/03 11:26:37;;;;;;;2.33;1.88;;;20.60;67.90;;;;;;4155519;28;20033;-61